createdAt,value
2016-03-31T00:00:34.067Z,0
2016-03-31T00:01:34.054Z,0
2016-03-31T00:02:34.056Z,0
2016-03-31T00:03:34.059Z,0
2016-03-31T00:04:34.046Z,0
2016-03-31T00:05:34.018Z,0
2016-03-31T00:06:33.864Z,0
2016-03-31T00:07:34.006Z,0
2016-03-31T00:08:34.009Z,0
2016-03-31T00:09:33.981Z,0
2016-03-31T00:10:34.000Z,0
2016-03-31T00:11:34.002Z,0
2016-03-31T00:12:33.974Z,0
2016-03-31T00:13:33.977Z,0
2016-03-31T00:14:33.964Z,0
2016-03-31T00:15:33.967Z,0
2016-03-31T00:16:33.969Z,0
2016-03-31T00:17:33.977Z,0
2016-03-31T00:18:33.921Z,0
2016-03-31T00:19:33.933Z,0
2016-03-31T00:20:33.956Z,0
2016-03-31T00:21:33.928Z,0
2016-03-31T00:22:33.883Z,0
2016-03-31T00:23:33.885Z,0
2016-03-31T00:24:33.921Z,0
2016-03-31T00:25:33.891Z,0
2016-03-31T00:26:33.926Z,0
2016-03-31T00:27:33.866Z,0
2016-03-31T00:28:35.852Z,0
2016-03-31T00:29:35.949Z,0
2016-03-31T00:30:35.270Z,0
2016-03-31T00:31:34.022Z,0
2016-03-31T00:32:34.497Z,0
2016-03-31T00:33:34.406Z,0
2016-03-31T00:34:33.814Z,0
2016-03-31T00:35:33.801Z,0
2016-03-31T00:36:33.804Z,0
2016-03-31T00:37:36.213Z,0
2016-03-31T00:38:34.840Z,0
2016-03-31T00:39:33.764Z,0
2016-03-31T00:40:33.784Z,0
2016-03-31T00:41:33.755Z,0
2016-03-31T00:42:33.773Z,0
2016-03-31T00:43:35.433Z,0
2016-03-31T00:44:34.263Z,0
2016-03-31T00:46:02.784Z,0
2016-03-31T00:46:33.722Z,0
2016-03-31T00:48:34.071Z,0
2016-03-31T00:49:33.761Z,0
2016-03-31T00:50:33.701Z,0
2016-03-31T00:51:33.720Z,0
2016-03-31T00:52:33.535Z,0
2016-03-31T00:53:33.694Z,0
2016-03-31T00:54:33.680Z,0
2016-03-31T00:55:33.683Z,0
2016-03-31T00:56:34.232Z,0
2016-03-31T00:57:34.001Z,0
2016-03-31T00:58:34.191Z,0
2016-03-31T00:59:33.647Z,0
2016-03-31T01:00:33.634Z,0
2016-03-31T01:01:33.637Z,0
2016-03-31T01:02:33.624Z,0
2016-03-31T01:03:33.626Z,0
2016-03-31T01:04:33.582Z,0
2016-03-31T01:05:33.601Z,0
2016-03-31T01:06:33.603Z,0
2016-03-31T01:07:33.590Z,0
2016-03-31T01:08:33.578Z,0
2016-03-31T01:09:33.580Z,0
2016-03-31T01:10:33.568Z,0
2016-03-31T01:11:33.570Z,0
2016-03-31T01:12:33.557Z,0
2016-03-31T01:13:33.544Z,0
2016-03-31T01:14:33.531Z,0
2016-03-31T01:15:33.565Z,0
2016-03-31T01:16:33.552Z,0
2016-03-31T01:17:33.524Z,0
2016-03-31T01:18:33.558Z,0
2016-03-31T01:19:33.497Z,0
2016-03-31T01:20:33.547Z,0
2016-03-31T01:21:33.487Z,0
2016-03-31T01:22:33.505Z,0
2016-03-31T01:23:33.477Z,0
2016-03-31T01:24:33.496Z,0
2016-03-31T01:25:33.451Z,0
2016-03-31T01:26:33.469Z,0
2016-03-31T01:27:33.440Z,0
2016-03-31T01:28:33.459Z,0
2016-03-31T01:29:33.431Z,0
2016-03-31T01:30:33.323Z,0
2016-03-31T01:31:33.420Z,0
2016-03-31T01:32:33.423Z,0
2016-03-31T01:33:33.457Z,0
2016-03-31T01:34:33.412Z,0
2016-03-31T01:35:33.431Z,0
2016-03-31T01:36:33.403Z,0
2016-03-31T01:37:33.389Z,0
2016-03-31T01:38:33.361Z,0
2016-03-31T01:39:33.380Z,0
2016-03-31T01:40:33.367Z,0
2016-03-31T01:41:33.384Z,0
2016-03-31T01:42:33.357Z,0
2016-03-31T01:43:33.344Z,0
2016-03-31T01:44:33.331Z,0
2016-03-31T01:45:33.380Z,0
2016-03-31T01:46:33.320Z,0
2016-03-31T01:47:35.323Z,0
2016-03-31T01:48:33.294Z,0
2016-03-31T01:49:34.750Z,0
2016-03-31T01:50:33.738Z,0
2016-03-31T01:51:33.740Z,0
2016-03-31T01:52:33.274Z,0
2016-03-31T01:53:33.496Z,0
2016-03-31T01:54:33.279Z,0
2016-03-31T01:55:33.251Z,0
2016-03-31T01:56:35.941Z,0
2016-03-31T01:57:34.552Z,0
2016-03-31T01:58:33.259Z,0
2016-03-31T01:59:33.418Z,0
2016-03-31T02:00:33.233Z,0
2016-03-31T02:01:33.220Z,0
2016-03-31T02:02:35.691Z,0
2016-03-31T02:03:34.116Z,0
2016-03-31T02:04:33.196Z,0
2016-03-31T02:05:33.184Z,0
2016-03-31T02:06:33.218Z,0
2016-03-31T02:07:33.448Z,0
2016-03-31T02:08:33.185Z,0
2016-03-31T02:09:33.313Z,0
2016-03-31T02:10:33.174Z,0
2016-03-31T02:11:33.147Z,0
2016-03-31T02:12:33.852Z,0
2016-03-31T02:13:33.699Z,0
2016-03-31T02:14:33.138Z,0
2016-03-31T02:15:33.876Z,0
2016-03-31T02:16:33.112Z,0
2016-03-31T02:17:33.274Z,0
2016-03-31T02:18:33.512Z,0
2016-03-31T02:19:33.093Z,0
2016-03-31T02:20:33.112Z,0
2016-03-31T02:21:33.082Z,0
2016-03-31T02:22:33.101Z,0
2016-03-31T02:23:33.087Z,0
2016-03-31T02:24:33.075Z,0
2016-03-31T02:25:33.077Z,0
2016-03-31T02:26:33.064Z,0
2016-03-31T02:27:33.067Z,0
2016-03-31T02:28:33.053Z,0
2016-03-31T02:29:33.056Z,0
2016-03-31T02:30:33.028Z,0
2016-03-31T02:31:33.015Z,0
2016-03-31T02:32:33.096Z,0
2016-03-31T02:33:33.021Z,0
2016-03-31T02:34:33.008Z,0
2016-03-31T02:35:33.010Z,0
2016-03-31T02:36:32.982Z,0
2016-03-31T02:37:33.000Z,0
2016-03-31T02:38:32.971Z,0
2016-03-31T02:39:32.974Z,0
2016-03-31T02:40:32.961Z,0
2016-03-31T02:41:32.979Z,0
2016-03-31T02:42:32.952Z,0
2016-03-31T02:43:32.954Z,0
2016-03-31T02:44:32.941Z,0
2016-03-31T02:45:32.959Z,0
2016-03-31T02:46:32.947Z,0
2016-03-31T02:47:32.965Z,0
2016-03-31T02:48:32.920Z,0
2016-03-31T02:49:32.923Z,0
2016-03-31T02:50:32.910Z,0
2016-03-31T02:51:32.944Z,0
2016-03-31T02:52:32.885Z,0
2016-03-31T02:53:32.934Z,0
2016-03-31T02:54:32.703Z,0
2016-03-31T02:55:32.861Z,0
2016-03-31T02:56:32.879Z,0
2016-03-31T02:57:32.867Z,0
2016-03-31T02:58:32.869Z,0
2016-03-31T02:59:32.841Z,0
2016-03-31T03:00:32.828Z,0
2016-03-31T03:01:32.830Z,0
2016-03-31T03:02:32.865Z,0
2016-03-31T03:03:32.836Z,0
2016-03-31T03:04:32.823Z,0
2016-03-31T03:05:32.810Z,0
2016-03-31T03:06:35.016Z,0
2016-03-31T03:07:32.632Z,0
2016-03-31T03:08:34.203Z,0
2016-03-31T03:09:33.019Z,0
2016-03-31T03:10:33.661Z,0
2016-03-31T03:11:33.384Z,0
2016-03-31T03:12:32.746Z,0
2016-03-31T03:13:32.749Z,0
2016-03-31T03:14:32.736Z,0
2016-03-31T03:15:35.285Z,0
2016-03-31T03:16:33.897Z,0
2016-03-31T03:17:32.760Z,0
2016-03-31T03:18:32.856Z,0
2016-03-31T03:19:32.686Z,0
2016-03-31T03:20:32.704Z,0
2016-03-31T03:21:34.380Z,0
2016-03-31T03:22:32.960Z,0
2016-03-31T03:23:33.869Z,0
2016-03-31T03:24:46.982Z,0
2016-03-31T03:25:33.109Z,0
2016-03-31T03:26:32.721Z,0
2016-03-31T03:27:32.645Z,0
2016-03-31T03:28:32.899Z,0
2016-03-31T03:29:32.651Z,0
2016-03-31T03:30:32.637Z,0
2016-03-31T03:31:47.610Z,0
2016-03-31T03:32:32.628Z,0
2016-03-31T03:33:32.631Z,0
2016-03-31T03:34:32.884Z,0
2016-03-31T03:35:47.198Z,0
2016-03-31T03:36:32.731Z,0
2016-03-31T03:37:32.625Z,0
2016-03-31T03:38:32.675Z,0
2016-03-31T03:39:32.583Z,0
2016-03-31T03:40:32.571Z,0
2016-03-31T03:41:32.558Z,0
2016-03-31T03:42:32.561Z,0
2016-03-31T03:43:32.547Z,0
2016-03-31T03:44:32.551Z,0
2016-03-31T03:45:32.538Z,0
2016-03-31T03:46:32.524Z,0
2016-03-31T03:47:32.497Z,0
2016-03-31T03:48:32.530Z,0
2016-03-31T03:49:32.517Z,0
2016-03-31T03:50:32.535Z,0
2016-03-31T03:51:32.491Z,0
2016-03-31T03:52:32.510Z,0
2016-03-31T03:53:32.482Z,0
2016-03-31T03:54:32.485Z,0
2016-03-31T03:55:32.455Z,0
2016-03-31T03:56:32.489Z,0
2016-03-31T03:57:32.477Z,0
2016-03-31T03:58:32.448Z,0
2016-03-31T03:59:32.451Z,0
2016-03-31T04:00:32.453Z,0
2016-03-31T04:01:32.424Z,0
2016-03-31T04:02:32.442Z,0
2016-03-31T04:03:32.429Z,20
2016-03-31T04:04:32.401Z,24
2016-03-31T04:05:32.389Z,28
2016-03-31T04:06:32.406Z,28
2016-03-31T04:07:32.409Z,28
2016-03-31T04:08:32.381Z,24
2016-03-31T04:09:32.414Z,24
2016-03-31T04:10:32.370Z,28
2016-03-31T04:11:32.373Z,28
2016-03-31T04:12:32.352Z,28
2016-03-31T04:13:34.365Z,28
2016-03-31T04:14:32.321Z,28
2016-03-31T04:15:33.380Z,28
2016-03-31T04:16:32.665Z,32
2016-03-31T04:17:32.527Z,28
2016-03-31T04:18:32.279Z,32
2016-03-31T04:19:32.267Z,32
2016-03-31T04:20:32.113Z,32
2016-03-31T04:21:32.318Z,36
2016-03-31T04:22:32.259Z,40
2016-03-31T04:23:32.277Z,16
2016-03-31T04:24:32.093Z,16
2016-03-31T04:25:34.017Z,20
2016-03-31T04:26:34.026Z,24
2016-03-31T04:27:33.440Z,32
2016-03-31T04:28:32.386Z,36
2016-03-31T04:29:33.113Z,40
2016-03-31T04:30:32.657Z,48
2016-03-31T04:31:32.522Z,60
2016-03-31T04:32:32.528Z,64
2016-03-31T04:33:32.518Z,72
2016-03-31T04:34:34.868Z,80
2016-03-31T04:35:33.402Z,84
2016-03-31T04:36:32.520Z,92
2016-03-31T04:37:32.592Z,100
2016-03-31T04:38:32.554Z,108
2016-03-31T04:39:33.344Z,116
2016-03-31T04:40:33.993Z,132
2016-03-31T04:41:32.513Z,148
2016-03-31T04:43:01.211Z,172
2016-03-31T04:43:46.711Z,188
2016-03-31T04:44:46.700Z,208
2016-03-31T04:45:32.518Z,228
2016-03-31T04:46:32.490Z,252
2016-03-31T04:47:32.728Z,276
2016-03-31T04:48:32.483Z,304
2016-03-31T04:49:32.501Z,336
2016-03-31T04:50:32.474Z,372
2016-03-31T04:51:32.508Z,400
2016-03-31T04:52:47.371Z,440
2016-03-31T04:53:32.514Z,464
2016-03-31T04:54:46.939Z,516
2016-03-31T04:55:32.520Z,544
2016-03-31T04:56:32.461Z,576
2016-03-31T04:57:32.542Z,600
2016-03-31T04:58:32.436Z,612
2016-03-31T04:59:32.438Z,652
2016-03-31T05:00:32.425Z,712
2016-03-31T05:01:32.428Z,776
2016-03-31T05:02:32.508Z,824
2016-03-31T05:03:32.418Z,832
2016-03-31T05:04:32.389Z,840
2016-03-31T05:05:32.408Z,888
2016-03-31T05:06:32.395Z,896
2016-03-31T05:07:32.383Z,916
2016-03-31T05:08:32.369Z,976
2016-03-31T05:09:32.372Z,1060
2016-03-31T05:10:32.358Z,1140
2016-03-31T05:11:32.346Z,1164
2016-03-31T05:12:32.364Z,1080
2016-03-31T05:13:32.351Z,1012
2016-03-31T05:14:32.338Z,1040
2016-03-31T05:15:32.325Z,1100
2016-03-31T05:16:31.624Z,1112
2016-03-31T05:17:32.472Z,1112
2016-03-31T05:18:32.302Z,1148
2016-03-31T05:19:32.289Z,1256
2016-03-31T05:20:32.308Z,1336
2016-03-31T05:21:32.279Z,1264
2016-03-31T05:22:32.282Z,1144
2016-03-31T05:23:32.315Z,1116
2016-03-31T05:24:32.303Z,1120
2016-03-31T05:25:32.274Z,1128
2016-03-31T05:26:32.262Z,1152
2016-03-31T05:27:32.280Z,1176
2016-03-31T05:28:32.251Z,1208
2016-03-31T05:29:32.253Z,1264
2016-03-31T05:30:32.257Z,1284
2016-03-31T05:31:32.228Z,1308
2016-03-31T05:32:32.277Z,1364
2016-03-31T05:33:32.217Z,1464
2016-03-31T05:34:32.220Z,1624
2016-03-31T05:35:32.222Z,1828
2016-03-31T05:36:32.225Z,2024
2016-03-31T05:37:32.181Z,2144
2016-03-31T05:38:32.215Z,2196
2016-03-31T05:39:32.219Z,2216
2016-03-31T05:40:32.033Z,2260
2016-03-31T05:41:32.177Z,2232
2016-03-31T05:42:32.163Z,2152
2016-03-31T05:43:32.166Z,2224
2016-03-31T05:44:34.137Z,2432
2016-03-31T05:45:32.188Z,2524
2016-03-31T05:46:33.627Z,2452
2016-03-31T05:47:32.755Z,2336
2016-03-31T05:48:32.788Z,2196
2016-03-31T05:49:32.136Z,2108
2016-03-31T05:50:32.451Z,2128
2016-03-31T05:51:32.125Z,2280
2016-03-31T05:52:31.941Z,2432
2016-03-31T05:53:31.959Z,2444
2016-03-31T05:54:34.149Z,2516
2016-03-31T05:55:32.512Z,2600
2016-03-31T05:56:33.357Z,2556
2016-03-31T05:57:33.048Z,2440
2016-03-31T05:58:32.284Z,2348
2016-03-31T05:59:47.459Z,2392
2016-03-31T06:00:33.086Z,2512
2016-03-31T06:01:32.059Z,2676
2016-03-31T06:02:32.108Z,2808
2016-03-31T06:03:32.611Z,2996
2016-03-31T06:04:32.348Z,3272
2016-03-31T06:05:32.022Z,3624
2016-03-31T06:06:32.181Z,3936
2016-03-31T06:07:32.044Z,4080
2016-03-31T06:08:32.030Z,4156
2016-03-31T06:09:46.361Z,4184
2016-03-31T06:10:46.208Z,4244
2016-03-31T06:11:32.633Z,4372
2016-03-31T06:12:31.994Z,4596
2016-03-31T06:13:32.153Z,4896
2016-03-31T06:14:31.984Z,5244
2016-03-31T06:15:32.158Z,5436
2016-03-31T06:16:31.989Z,5528
2016-03-31T06:17:31.977Z,5636
2016-03-31T06:18:31.948Z,5672
2016-03-31T06:19:31.982Z,5676
2016-03-31T06:20:31.953Z,5696
2016-03-31T06:21:31.956Z,5940
2016-03-31T06:22:31.943Z,6152
2016-03-31T06:23:31.962Z,6016
2016-03-31T06:24:31.948Z,5780
2016-03-31T06:25:31.951Z,5596
2016-03-31T06:26:31.938Z,5404
2016-03-31T06:27:31.941Z,5204
2016-03-31T06:28:31.943Z,5384
2016-03-31T06:29:31.915Z,5628
2016-03-31T06:30:31.934Z,5440
2016-03-31T06:31:31.936Z,4956
2016-03-31T06:32:31.923Z,4620
2016-03-31T06:33:31.894Z,4360
2016-03-31T06:34:31.929Z,4096
2016-03-31T06:35:31.900Z,3872
2016-03-31T06:36:31.902Z,3876
2016-03-31T06:37:31.890Z,3948
2016-03-31T06:38:31.892Z,3944
2016-03-31T06:39:31.880Z,3920
2016-03-31T06:40:31.867Z,4008
2016-03-31T06:41:31.885Z,4128
2016-03-31T06:42:31.903Z,4188
2016-03-31T06:43:31.890Z,4296
2016-03-31T06:44:31.877Z,4444
2016-03-31T06:45:31.849Z,4504
2016-03-31T06:46:31.866Z,4616
2016-03-31T06:47:31.855Z,4680
2016-03-31T06:48:31.857Z,4820
2016-03-31T06:49:31.843Z,5008
2016-03-31T06:50:31.847Z,5256
2016-03-31T06:51:31.818Z,5360
2016-03-31T06:52:31.835Z,5532
2016-03-31T06:53:31.824Z,5736
2016-03-31T06:54:31.826Z,5828
2016-03-31T06:55:31.844Z,5976
2016-03-31T06:56:31.832Z,6152
2016-03-31T06:57:31.803Z,6308
2016-03-31T06:58:31.837Z,6368
2016-03-31T06:59:31.808Z,6352
2016-03-31T07:00:31.795Z,6604
2016-03-31T07:01:31.829Z,6856
2016-03-31T07:02:31.784Z,7528
2016-03-31T07:04:31.790Z,9264
2016-03-31T07:05:31.792Z,8956
2016-03-31T07:06:32.703Z,8692
2016-03-31T07:07:32.705Z,8652
2016-03-31T07:08:32.181Z,8804
2016-03-31T07:09:31.761Z,9332
2016-03-31T07:10:31.764Z,10440
2016-03-31T07:11:31.783Z,10308
2016-03-31T07:12:33.113Z,9616
2016-03-31T07:13:31.741Z,8804
2016-03-31T07:14:33.057Z,8492
2016-03-31T07:15:31.824Z,8124
2016-03-31T07:16:31.734Z,8048
2016-03-31T07:17:32.002Z,8288
2016-03-31T07:18:33.160Z,7988
2016-03-31T07:19:32.227Z,7288
2016-03-31T07:20:32.744Z,6648
2016-03-31T07:21:46.012Z,6428
2016-03-31T07:22:32.281Z,6412
2016-03-31T07:23:31.769Z,6732
2016-03-31T07:24:31.787Z,7512
2016-03-31T07:25:31.742Z,7984
2016-03-31T07:26:31.823Z,8092
2016-03-31T07:27:32.107Z,8036
2016-03-31T07:28:33.109Z,8172
2016-03-31T07:29:32.643Z,7932
2016-03-31T07:30:31.896Z,7736
2016-03-31T07:31:32.258Z,7784
2016-03-31T07:32:32.308Z,7424
2016-03-31T07:33:31.701Z,6216
2016-03-31T07:34:31.704Z,5160
2016-03-31T07:35:31.956Z,5132
2016-03-31T07:36:31.709Z,5892
2016-03-31T07:37:31.681Z,6956
2016-03-31T07:38:31.683Z,8176
2016-03-31T07:39:31.686Z,8640
2016-03-31T07:40:31.689Z,7552
2016-03-31T07:41:31.675Z,6688
2016-03-31T07:42:31.710Z,7152
2016-03-31T07:43:31.650Z,8240
2016-03-31T07:44:31.669Z,9380
2016-03-31T07:45:32.077Z,10712
2016-03-31T07:46:31.674Z,11368
2016-03-31T07:47:31.676Z,11756
2016-03-31T07:48:31.664Z,12148
2016-03-31T07:49:31.635Z,12296
2016-03-31T07:50:31.654Z,12044
2016-03-31T07:51:31.641Z,11864
2016-03-31T07:52:31.659Z,12484
2016-03-31T07:53:31.662Z,12720
2016-03-31T07:54:31.648Z,13016
2016-03-31T07:55:31.651Z,13512
2016-03-31T07:56:31.670Z,13784
2016-03-31T07:57:31.640Z,13284
2016-03-31T07:58:31.643Z,12540
2016-03-31T07:59:31.646Z,11884
2016-03-31T08:00:31.649Z,11800
2016-03-31T08:01:31.620Z,13044
2016-03-31T08:02:31.639Z,14700
2016-03-31T08:03:31.625Z,15532
2016-03-31T08:04:31.659Z,15192
2016-03-31T08:05:31.631Z,13556
2016-03-31T08:06:31.650Z,13044
2016-03-31T08:07:31.621Z,12872
2016-03-31T08:08:31.623Z,12524
2016-03-31T08:09:31.642Z,14008
2016-03-31T08:10:31.614Z,15228
2016-03-31T08:11:31.632Z,14800
2016-03-31T08:12:31.603Z,13792
2016-03-31T08:13:31.622Z,13440
2016-03-31T08:14:31.624Z,13132
2016-03-31T08:15:31.627Z,13448
2016-03-31T08:16:31.441Z,14312
2016-03-31T08:17:31.617Z,15684
2016-03-31T08:18:31.604Z,17696
2016-03-31T08:19:31.607Z,18112
2016-03-31T08:20:31.593Z,18336
2016-03-31T08:21:31.612Z,18880
2016-03-31T08:22:32.068Z,18784
2016-03-31T08:23:32.023Z,19872
2016-03-31T08:24:31.620Z,22464
2016-03-31T08:25:32.809Z,22176
2016-03-31T08:26:31.593Z,21600
2016-03-31T08:27:31.612Z,22176
2016-03-31T08:28:32.051Z,22528
2016-03-31T08:29:31.618Z,22720
2016-03-31T08:30:31.636Z,22816
2016-03-31T08:31:34.201Z,22720
2016-03-31T08:32:33.312Z,22592
2016-03-31T08:33:31.628Z,23680
2016-03-31T08:34:31.865Z,24032
2016-03-31T08:35:31.962Z,23456
2016-03-31T08:36:32.230Z,22400
2016-03-31T08:37:32.733Z,19872
2016-03-31T08:38:31.767Z,17472
2016-03-31T08:39:32.285Z,16416
2016-03-31T08:40:32.351Z,15872
2016-03-31T08:41:31.869Z,15324
2016-03-31T08:42:31.606Z,14800
2016-03-31T08:43:31.578Z,14500
2016-03-31T08:44:31.611Z,14160
2016-03-31T08:45:31.583Z,13508
2016-03-31T08:46:32.148Z,13212
2016-03-31T08:47:45.807Z,13480
2016-03-31T08:49:00.841Z,14212
2016-03-31T08:49:32.016Z,14544
2016-03-31T08:50:32.549Z,14848
2016-03-31T08:51:31.598Z,14196
2016-03-31T08:52:31.616Z,14088
2016-03-31T08:53:31.604Z,14500
2016-03-31T08:54:31.622Z,14500
2016-03-31T08:55:31.609Z,14452
2016-03-31T08:56:31.612Z,14296
2016-03-31T08:57:31.599Z,13824
2016-03-31T08:58:31.618Z,13340
2016-03-31T08:59:31.620Z,13640
2016-03-31T09:00:31.638Z,13688
2016-03-31T09:01:31.641Z,13224
2016-03-31T09:02:31.629Z,12564
2016-03-31T09:03:31.631Z,12120
2016-03-31T09:04:31.617Z,12416
2016-03-31T09:05:31.606Z,13200
2016-03-31T09:06:31.608Z,13304
2016-03-31T09:07:31.594Z,12520
2016-03-31T09:08:31.628Z,12136
2016-03-31T09:09:31.600Z,12232
2016-03-31T09:10:31.650Z,11992
2016-03-31T09:11:31.621Z,11712
2016-03-31T09:12:31.608Z,11980
2016-03-31T09:13:31.611Z,12204
2016-03-31T09:14:31.613Z,12200
2016-03-31T09:15:31.647Z,11980
2016-03-31T09:16:31.619Z,12448
2016-03-31T09:17:31.638Z,13504
2016-03-31T09:18:31.609Z,14240
2016-03-31T09:19:31.627Z,14596
2016-03-31T09:20:31.630Z,14448
2016-03-31T09:21:31.477Z,13720
2016-03-31T09:22:31.463Z,12916
2016-03-31T09:23:31.607Z,12920
2016-03-31T09:24:31.624Z,13056
2016-03-31T09:25:31.597Z,13164
2016-03-31T09:26:31.630Z,12760
2016-03-31T09:27:31.618Z,12300
2016-03-31T09:28:31.621Z,12304
2016-03-31T09:29:31.607Z,13268
2016-03-31T09:30:31.626Z,14460
2016-03-31T09:31:31.596Z,13788
2016-03-31T09:32:31.615Z,12600
2016-03-31T09:33:31.602Z,12168
2016-03-31T09:34:31.621Z,12068
2016-03-31T09:35:31.623Z,12324
2016-03-31T09:36:31.626Z,13276
2016-03-31T09:37:31.645Z,14300
2016-03-31T09:38:31.631Z,15360
2016-03-31T09:39:31.618Z,15456
2016-03-31T09:40:31.621Z,14204
2016-03-31T09:41:33.343Z,13944
2016-03-31T09:42:33.361Z,13996
2016-03-31T09:43:32.645Z,14088
2016-03-31T09:44:31.617Z,13772
2016-03-31T09:45:32.042Z,13536
2016-03-31T09:46:31.653Z,13940
2016-03-31T09:47:32.280Z,14956
2016-03-31T09:48:31.627Z,16000
2016-03-31T09:49:31.613Z,16256
2016-03-31T09:50:32.804Z,15352
2016-03-31T09:51:31.900Z,15120
2016-03-31T09:52:32.857Z,15284
2016-03-31T09:53:32.953Z,15716
2016-03-31T09:54:32.691Z,15692
2016-03-31T09:55:35.536Z,15580
2016-03-31T09:56:45.805Z,15208
2016-03-31T09:57:31.871Z,15052
2016-03-31T09:58:32.060Z,15592
2016-03-31T09:59:32.235Z,16064
2016-03-31T10:00:31.768Z,16768
2016-03-31T10:01:31.631Z,16640
2016-03-31T10:02:31.634Z,17280
2016-03-31T10:03:31.918Z,17504
2016-03-31T10:04:31.608Z,17184
2016-03-31T10:05:31.892Z,17408
2016-03-31T10:06:59.987Z,18656
2016-03-31T10:08:00.553Z,19616
2016-03-31T10:08:31.618Z,20000
2016-03-31T10:09:45.809Z,19712
2016-03-31T10:10:32.171Z,19808
2016-03-31T10:11:32.064Z,20064
2016-03-31T10:12:31.644Z,20800
2016-03-31T10:13:31.616Z,20256
2016-03-31T10:14:31.634Z,18912
2016-03-31T10:15:31.653Z,18656
2016-03-31T10:16:31.640Z,19232
2016-03-31T10:17:31.627Z,19744
2016-03-31T10:18:31.645Z,20160
2016-03-31T10:19:31.633Z,20288
2016-03-31T10:20:31.635Z,20448
2016-03-31T10:21:31.623Z,20864
2016-03-31T10:22:31.625Z,21216
2016-03-31T10:23:31.659Z,21632
2016-03-31T10:24:31.661Z,22016
2016-03-31T10:25:31.664Z,22016
2016-03-31T10:26:31.652Z,22272
2016-03-31T10:27:31.513Z,21824
2016-03-31T10:28:31.657Z,21312
2016-03-31T10:29:31.674Z,21056
2016-03-31T10:30:31.662Z,20128
2016-03-31T10:31:31.665Z,19744
2016-03-31T10:32:31.668Z,19200
2016-03-31T10:33:31.670Z,18560
2016-03-31T10:34:31.673Z,18368
2016-03-31T10:35:31.659Z,18432
2016-03-31T10:36:31.678Z,17920
2016-03-31T10:37:31.681Z,16864
2016-03-31T10:38:31.668Z,16896
2016-03-31T10:39:31.687Z,18240
2016-03-31T10:40:31.689Z,17696
2016-03-31T10:41:31.723Z,16992
2016-03-31T10:42:31.709Z,17024
2016-03-31T10:43:31.729Z,17696
2016-03-31T10:44:31.684Z,17536
2016-03-31T10:45:31.703Z,16544
2016-03-31T10:46:31.689Z,14932
2016-03-31T10:47:31.723Z,13336
2016-03-31T10:48:31.711Z,12408
2016-03-31T10:49:31.713Z,12008
2016-03-31T10:50:31.700Z,11736
2016-03-31T10:51:31.719Z,11592
2016-03-31T10:52:31.737Z,11692
2016-03-31T10:53:31.755Z,12096
2016-03-31T10:54:31.758Z,13192
2016-03-31T10:55:31.729Z,14952
2016-03-31T10:56:31.716Z,15968
2016-03-31T10:57:31.735Z,15872
2016-03-31T10:58:31.722Z,15500
2016-03-31T10:59:31.725Z,15536
2016-03-31T11:00:31.790Z,15208
2016-03-31T11:01:31.855Z,15116
2016-03-31T11:02:31.733Z,15352
2016-03-31T11:03:32.704Z,15840
2016-03-31T11:04:32.566Z,16864
2016-03-31T11:05:31.757Z,17952
2016-03-31T11:06:31.977Z,18400
2016-03-31T11:07:31.605Z,17888
2016-03-31T11:08:31.748Z,17056
2016-03-31T11:09:31.751Z,16768
2016-03-31T11:10:33.317Z,16864
2016-03-31T11:11:31.741Z,17280
2016-03-31T11:12:31.868Z,17952
2016-03-31T11:13:31.746Z,18752
2016-03-31T11:14:32.109Z,19328
2016-03-31T11:15:32.534Z,19776
2016-03-31T11:16:33.708Z,20864
2016-03-31T11:17:31.757Z,21184
2016-03-31T11:18:32.198Z,22528
2016-03-31T11:19:31.747Z,22368
2016-03-31T11:20:32.219Z,21760
2016-03-31T11:21:31.753Z,20704
2016-03-31T11:22:31.770Z,19168
2016-03-31T11:23:31.758Z,18528
2016-03-31T11:24:31.870Z,18496
2016-03-31T11:25:32.733Z,19328
2016-03-31T11:26:32.281Z,19936
2016-03-31T11:27:31.784Z,19872
2016-03-31T11:28:32.333Z,20448
2016-03-31T11:29:46.368Z,22752
2016-03-31T11:30:31.791Z,23040
2016-03-31T11:31:32.091Z,20736
2016-03-31T11:32:31.797Z,18496
2016-03-31T11:33:31.768Z,17472
2016-03-31T11:34:31.803Z,17216
2016-03-31T11:35:31.790Z,18080
2016-03-31T11:36:31.807Z,18560
2016-03-31T11:37:31.795Z,18560
2016-03-31T11:38:31.813Z,18336
2016-03-31T11:39:31.816Z,18272
2016-03-31T11:40:31.788Z,18400
2016-03-31T11:41:31.790Z,18944
2016-03-31T11:42:31.793Z,19968
2016-03-31T11:43:31.826Z,21024
2016-03-31T11:44:31.829Z,21888
2016-03-31T11:45:31.817Z,20992
2016-03-31T11:46:31.820Z,19424
2016-03-31T11:47:31.837Z,17760
2016-03-31T11:48:31.825Z,16160
2016-03-31T11:49:31.827Z,16256
2016-03-31T11:50:31.830Z,17248
2016-03-31T11:51:31.817Z,17664
2016-03-31T11:52:31.851Z,17856
2016-03-31T11:53:31.839Z,17952
2016-03-31T11:54:31.856Z,17792
2016-03-31T11:55:31.875Z,17280
2016-03-31T11:56:31.846Z,16416
2016-03-31T11:57:31.833Z,15428
2016-03-31T11:58:31.836Z,15264
2016-03-31T11:59:31.885Z,15628
2016-03-31T12:00:31.842Z,15588
2016-03-31T12:01:31.875Z,14920
2016-03-31T12:02:31.847Z,14216
2016-03-31T12:03:31.881Z,13700
2016-03-31T12:04:31.853Z,13324
2016-03-31T12:05:31.855Z,13380
2016-03-31T12:06:31.858Z,13636
2016-03-31T12:07:31.876Z,13768
2016-03-31T12:08:31.863Z,14088
2016-03-31T12:09:31.881Z,14460
2016-03-31T12:10:31.868Z,14908
2016-03-31T12:11:31.840Z,15524
2016-03-31T12:12:31.890Z,16608
2016-03-31T12:13:31.893Z,17120
2016-03-31T12:14:31.895Z,16576
2016-03-31T12:15:31.913Z,16000
2016-03-31T12:16:31.915Z,15460
2016-03-31T12:17:31.903Z,15180
2016-03-31T12:18:31.874Z,15088
2016-03-31T12:19:33.565Z,15484
2016-03-31T12:20:33.145Z,16256
2016-03-31T12:21:32.320Z,16608
2016-03-31T12:22:32.917Z,16704
2016-03-31T12:23:31.904Z,16832
2016-03-31T12:24:31.891Z,16928
2016-03-31T12:25:31.925Z,17376
2016-03-31T12:26:31.896Z,17792
2016-03-31T12:27:31.899Z,17568
2016-03-31T12:28:33.338Z,16672
2016-03-31T12:29:31.919Z,16032
2016-03-31T12:30:32.485Z,15620
2016-03-31T12:31:32.628Z,16192
2016-03-31T12:32:32.412Z,16256
2016-03-31T12:33:32.383Z,15840
2016-03-31T12:34:46.542Z,15356
2016-03-31T12:35:32.451Z,15600
2016-03-31T12:36:46.891Z,16288
2016-03-31T12:37:46.082Z,16480
2016-03-31T12:38:32.100Z,16672
2016-03-31T12:39:32.602Z,16992
2016-03-31T12:40:31.746Z,17184
2016-03-31T12:41:31.904Z,17152
2016-03-31T12:42:32.017Z,16960
2016-03-31T12:43:34.035Z,16736
2016-03-31T12:44:46.554Z,17184
2016-03-31T12:45:46.118Z,17728
2016-03-31T12:46:32.559Z,17600
2016-03-31T12:47:32.623Z,17248
2016-03-31T12:48:32.345Z,16928
2016-03-31T12:49:32.020Z,16768
2016-03-31T12:50:32.257Z,16128
2016-03-31T12:51:31.932Z,15384
2016-03-31T12:52:31.966Z,14996
2016-03-31T12:53:31.922Z,14624
2016-03-31T12:54:31.924Z,14108
2016-03-31T12:55:31.927Z,13888
2016-03-31T12:56:31.930Z,13972
2016-03-31T12:57:31.948Z,14004
2016-03-31T12:58:31.935Z,14200
2016-03-31T12:59:31.938Z,14160
2016-03-31T13:00:31.940Z,14152
2016-03-31T13:01:31.959Z,14560
2016-03-31T13:02:31.930Z,14944
2016-03-31T13:03:31.948Z,15112
2016-03-31T13:04:31.919Z,15112
2016-03-31T13:05:31.955Z,14732
2016-03-31T13:06:31.941Z,14536
2016-03-31T13:07:31.944Z,14268
2016-03-31T13:08:31.978Z,13508
2016-03-31T13:09:31.949Z,12828
2016-03-31T13:10:31.951Z,12720
2016-03-31T13:11:31.954Z,12708
2016-03-31T13:12:31.957Z,12348
2016-03-31T13:13:31.959Z,12068
2016-03-31T13:14:31.946Z,11700
2016-03-31T13:15:31.934Z,11300
2016-03-31T13:16:31.968Z,11092
2016-03-31T13:17:31.971Z,11332
2016-03-31T13:18:31.957Z,11748
2016-03-31T13:19:31.820Z,12276
2016-03-31T13:20:31.947Z,12800
2016-03-31T13:21:31.965Z,12724
2016-03-31T13:22:31.937Z,11880
2016-03-31T13:23:31.956Z,10740
2016-03-31T13:24:31.943Z,9984
2016-03-31T13:25:31.961Z,9904
2016-03-31T13:26:31.948Z,10572
2016-03-31T13:27:31.966Z,11872
2016-03-31T13:28:31.953Z,13504
2016-03-31T13:29:31.941Z,15968
2016-03-31T13:30:31.958Z,16832
2016-03-31T13:31:31.949Z,14656
2016-03-31T13:32:31.918Z,12704
2016-03-31T13:33:32.120Z,12008
2016-03-31T13:34:31.901Z,12448
2016-03-31T13:35:31.869Z,12920
2016-03-31T13:36:31.843Z,13060